Time;durP1;ratioP1;P1;durP2;ratioP2;P2;SDS_P1;SDS_P2;PMS_P1;PMS_P2;Temp;Humidity;BMP_temperature;BMP_pressure;BME280_temperature;BME280_humidity;BME280_pressure;Samples;Min_cycle;Max_cycle;Signal;HPM_P1;HPM_P2
2021/04/22 00:00:14;;;;;;;9.80;8.83;;;;;;;9.24;67.82;99027.63;5107085;28;42588;-76
2021/04/22 00:02:44;;;;;;;15.00;13.10;;;;;;;9.28;68.21;99029.97;5107755;28;39963;-75
2021/04/22 00:05:23;;;;;;;12.43;11.00;;;;;;;9.32;68.56;99034.19;5107308;28;40843;-76
2021/04/22 00:07:52;;;;;;;12.53;11.23;;;;;;;9.39;68.37;99028.56;5107702;28;42774;-75
2021/04/22 00:10:26;;;;;;;11.00;9.90;;;;;;;9.44;68.12;99032.66;5108062;28;41523;-77
2021/04/22 00:12:54;;;;;;;13.90;12.30;;;;;;;9.46;68.65;99025.50;5090948;28;39198;-75
2021/04/22 00:15:22;;;;;;;12.30;11.03;;;;;;;9.44;68.81;99019.44;5107421;28;40728;-75
2021/04/22 00:17:54;;;;;;;12.70;11.33;;;;;;;9.38;68.68;99017.16;5107781;28;42382;-76
2021/04/22 00:20:23;;;;;;;12.50;11.07;;;;;;;9.39;68.78;99024.16;5108185;28;41828;-76
2021/04/22 00:22:50;;;;;;;12.63;11.43;;;;;;;9.36;68.72;99025.16;5107513;28;40724;-76
2021/04/22 00:25:17;;;;;;;13.00;11.63;;;;;;;9.29;68.92;99018.47;5090806;28;40658;-75
2021/04/22 00:27:45;;;;;;;10.70;9.70;;;;;;;9.29;68.46;99022.91;5107368;28;41795;-74
2021/04/22 00:30:15;;;;;;;13.10;11.90;;;;;;;9.29;68.23;99028.19;5107597;28;41080;-75
2021/04/22 00:32:42;;;;;;;10.87;9.77;;;;;;;9.33;68.12;99040.31;5107816;27;40003;-76
2021/04/22 00:35:12;;;;;;;11.77;10.57;;;;;;;9.31;67.90;99028.97;5090255;28;41633;-76
2021/04/22 00:37:40;;;;;;;11.43;10.23;;;;;;;9.33;67.81;99024.47;5090676;28;41784;-75
2021/04/22 00:40:13;;;;;;;10.63;9.50;;;;;;;9.45;67.70;99033.50;5110880;28;41004;-75
2021/04/22 00:42:40;;;;;;;16.23;13.20;;;;;;;9.34;67.28;99018.25;5111414;28;39687;-75
2021/04/22 00:45:09;;;;;;;12.23;10.90;;;;;;;9.48;67.55;99038.63;5111862;27;41804;-75
2021/04/22 00:47:38;;;;;;;12.67;10.57;;;;;;;9.44;67.50;99032.66;5094061;28;42564;-75
2021/04/22 00:50:09;;;;;;;15.57;11.63;;;;;;;9.44;68.21;99032.66;5093456;28;41212;-75
2021/04/22 00:52:37;;;;;;;13.57;11.90;;;;;;;9.40;67.98;99033.75;5093768;28;38885;-75
2021/04/22 00:55:07;;;;;;;13.73;12.23;;;;;;;9.34;68.34;99034.97;5110445;28;42204;-75
2021/04/22 00:57:34;;;;;;;14.80;13.30;;;;;;;9.29;67.92;99050.19;5111092;28;43681;-75
2021/04/22 01:00:04;;;;;;;13.63;12.23;;;;;;;9.24;68.16;99056.69;5102489;27;42181;-76
2021/04/22 01:02:31;;;;;;;13.13;11.43;;;;;;;9.18;68.03;99063.13;5106477;28;41113;-75
2021/04/22 01:04:58;;;;;;;12.20;10.97;;;;;;;9.13;68.70;99054.63;5107544;28;41523;-75
2021/04/22 01:07:26;;;;;;;16.37;14.67;;;;;;;9.10;69.03;99049.50;5106408;28;42985;-76
2021/04/22 01:09:53;;;;;;;15.27;13.77;;;;;;;9.08;70.85;99045.22;5106540;28;42004;-77
2021/04/22 01:12:21;;;;;;;18.37;14.90;;;;;;;9.03;71.29;99048.09;5108085;28;39244;-74
2021/04/22 01:14:48;;;;;;;16.17;13.77;;;;;;;8.98;70.72;99051.00;5110340;28;41646;-75
2021/04/22 01:17:15;;;;;;;15.50;13.37;;;;;;;8.95;70.28;99052.94;5111565;27;42433;-75
2021/04/22 01:19:42;;;;;;;14.83;13.33;;;;;;;8.88;70.04;99057.72;5109073;28;43001;-75
2021/04/22 01:22:10;;;;;;;13.47;12.00;;;;;;;8.88;69.82;99075.34;5110876;27;39729;-74
2021/04/22 01:24:38;;;;;;;15.07;12.63;;;;;;;8.85;69.66;99068.41;5110824;27;42107;-75
2021/04/22 01:27:06;;;;;;;14.00;12.50;;;;;;;8.85;70.11;99068.41;5110020;28;43419;-75
2021/04/22 01:29:33;;;;;;;18.13;14.87;;;;;;;8.89;70.54;99067.34;5110332;28;42055;-74
2021/04/22 01:32:00;;;;;;;14.80;12.57;;;;;;;8.87;70.21;99057.78;5109666;28;41023;-75
2021/04/22 01:34:27;;;;;;;20.67;16.53;;;;;;;9.02;70.01;99068.38;5093130;28;40769;-76
2021/04/22 01:36:55;;;;;;;16.27;13.97;;;;;;;9.14;69.58;99081.91;5110634;27;43133;-75
2021/04/22 01:39:23;;;;;;;18.33;14.80;;;;;;;9.21;69.27;99083.25;5110000;28;42870;-75
2021/04/22 01:41:50;;;;;;;15.23;13.60;;;;;;;9.31;68.99;99079.19;5110730;27;40100;-75
2021/04/22 01:44:17;;;;;;;16.87;14.07;;;;;;;9.38;69.14;99077.09;5111033;27;42353;-75
2021/04/22 01:46:44;;;;;;;14.30;12.77;;;;;;;9.43;68.75;99080.31;5093203;28;41135;-75
2021/04/22 01:49:11;;;;;;;14.30;12.80;;;;;;;9.49;68.47;99088.78;5110655;27;42727;-75
2021/04/22 01:51:39;;;;;;;13.20;11.90;;;;;;;9.49;68.16;99077.34;5110243;28;39934;-75
2021/04/22 01:54:07;;;;;;;13.37;11.83;;;;;;;9.61;68.27;99088.13;5110572;27;42098;-75
2021/04/22 01:56:35;;;;;;;16.07;14.47;;;;;;;9.63;68.55;99083.59;5109647;28;42699;-75
2021/04/22 01:59:03;;;;;;;17.07;14.60;;;;;;;9.67;68.41;99092.19;5108933;28;41989;-75
2021/04/22 02:01:30;;;;;;;14.60;13.10;;;;;;;9.71;68.32;99101.66;5110485;27;41968;-75
2021/04/22 02:03:57;;;;;;;15.10;13.50;;;;;;;9.75;68.04;99100.56;5108453;28;41572;-75
2021/04/22 02:06:24;;;;;;;15.17;11.73;;;;;;;9.80;67.89;99109.09;5110684;27;43939;-75
2021/04/22 02:08:51;;;;;;;14.87;12.97;;;;;;;9.82;67.73;99109.00;5109835;28;41210;-75
2021/04/22 02:11:19;;;;;;;16.67;14.87;;;;;;;9.86;67.49;99113.19;5110141;27;40674;-75
2021/04/22 02:13:46;;;;;;;15.03;12.37;;;;;;;9.88;67.30;99111.34;5109196;28;40610;-75
2021/04/22 02:16:13;;;;;;;14.00;12.57;;;;;;;9.87;67.48;99115.78;5092295;28;42580;-75
2021/04/22 02:18:40;;;;;;;12.00;10.80;;;;;;;9.89;67.46;99120.97;5109375;27;42242;-75
2021/04/22 02:21:08;;;;;;;12.30;10.77;;;;;;;9.85;67.38;99116.78;5108206;28;39843;-75
2021/04/22 02:23:35;;;;;;;15.20;13.60;;;;;;;9.78;67.80;99123.34;5107999;28;42326;-75
2021/04/22 02:26:02;;;;;;;12.70;11.23;;;;;;;9.78;67.89;99137.41;5107665;28;42737;-76
2021/04/22 02:28:29;;;;;;;14.10;12.67;;;;;;;9.77;67.52;99130.41;5109604;28;41358;-75
2021/04/22 02:30:58;;;;;;;13.27;11.77;;;;;;;9.68;67.76;99115.91;5091691;28;39004;-75
2021/04/22 02:33:24;;;;;;;11.77;10.47;;;;;;;9.73;67.60;99134.19;5092387;28;41607;-74
2021/04/22 02:35:52;;;;;;;13.63;12.23;;;;;;;9.70;67.68;99129.91;5107994;28;43212;-75
2021/04/22 02:38:20;;;;;;;14.73;13.13;;;;;;;9.75;67.88;99131.47;5110854;27;42046;-74
2021/04/22 02:40:48;;;;;;;15.00;13.37;;;;;;;9.79;68.38;99140.91;5108359;28;40442;-75
2021/04/22 02:43:18;;;;;;;17.30;13.70;;;;;;;9.80;69.38;99140.84;5092059;28;40632;-74
2021/04/22 02:45:49;;;;;;;19.70;13.90;;;;;;;9.81;68.79;99147.84;5108612;28;43324;-74
2021/04/22 02:48:17;;;;;;;15.10;10.50;;;;;;;9.81;67.69;99149.63;5109984;27;42930;-74
2021/04/22 02:50:47;;;;;;;18.97;9.37;;;;;;;9.79;66.66;99159.44;5109397;28;39139;-74
2021/04/22 02:53:14;;;;;;;13.43;8.40;;;;;;;9.78;66.56;99163.88;5108067;28;43336;-74
2021/04/22 02:55:42;;;;;;;15.30;9.53;;;;;;;9.71;66.74;99144.84;5108538;28;43494;-74
2021/04/22 02:58:10;;;;;;;15.30;8.83;;;;;;;9.75;66.30;99153.47;5108065;28;42061;-74
2021/04/22 03:00:38;;;;;;;14.17;9.00;;;;;;;9.77;65.95;99163.97;5109429;27;40829;-75
2021/04/22 03:03:06;;;;;;;14.33;8.50;;;;;;;9.82;64.59;99183.06;5109503;27;41704;-73
2021/04/22 03:05:34;;;;;;;16.87;8.27;;;;;;;9.75;64.77;99163.19;5109902;27;42625;-75
2021/04/22 03:08:01;;;;;;;10.70;6.93;;;;;;;9.53;64.08;99153.75;5109155;27;42300;-75
2021/04/22 03:10:29;;;;;;;12.43;6.87;;;;;;;9.65;64.28;99179.53;5109925;27;40554;-74
2021/04/22 03:12:57;;;;;;;13.73;7.10;;;;;;;9.58;63.01;99180.81;5108220;28;40917;-74
2021/04/22 03:15:27;;;;;;;15.97;6.03;;;;;;;9.52;62.69;99186.41;5109450;27;42484;-75
2021/04/22 03:17:54;;;;;;;13.47;6.00;;;;;;;9.36;62.01;99167.88;5109303;27;42146;-74
2021/04/22 03:20:22;;;;;;;11.90;5.67;;;;;;;9.44;61.80;99193.91;5108656;28;40029;-75
2021/04/22 03:22:50;;;;;;;11.00;5.40;;;;;;;9.33;61.42;99196.25;5109090;27;41296;-73
2021/04/22 03:25:20;;;;;;;11.20;5.37;;;;;;;9.17;60.71;99184.75;5107734;28;43562;-74
2021/04/22 03:27:47;;;;;;;9.53;5.40;;;;;;;9.22;60.59;99202.09;5108079;28;41594;-74
2021/04/22 03:30:17;;;;;;;9.43;4.63;;;;;;;9.21;60.25;99215.38;5110091;27;40610;-75
2021/04/22 03:32:44;;;;;;;12.70;4.90;;;;;;;9.11;59.56;99214.16;5108931;27;41665;-74
2021/04/22 03:35:13;;;;;;;9.77;4.93;;;;;;;9.02;59.96;99209.34;5108648;27;41721;-74
2021/04/22 03:37:41;;;;;;;12.60;5.37;;;;;;;9.07;60.16;99223.16;5109531;27;42392;-75
2021/04/22 03:40:12;;;;;;;10.83;4.60;;;;;;;9.00;60.42;99226.13;5109428;27;39825;-74
2021/04/22 03:42:40;;;;;;;14.13;5.77;;;;;;;8.96;60.80;99221.91;5108262;28;40656;-74
2021/04/22 03:45:10;;;;;;;10.07;5.20;;;;;;;8.92;60.96;99220.34;5107210;28;43455;-74
2021/04/22 03:47:37;;;;;;;11.23;5.27;;;;;;;8.84;61.18;99226.94;5107511;28;42684;-74
2021/04/22 03:50:05;;;;;;;7.73;4.70;;;;;;;8.79;60.48;99240.38;5107871;28;39860;-75
2021/04/22 03:52:33;;;;;;;11.13;3.90;;;;;;;8.76;60.54;99232.63;5108768;27;41394;-74
2021/04/22 03:55:00;;;;;;;12.10;4.07;;;;;;;8.70;60.28;99235.53;5107972;28;41737;-74
2021/04/22 03:57:29;;;;;;;10.00;4.23;;;;;;;8.53;60.04;99219.69;5107651;28;42266;-75
2021/04/22 03:59:56;;;;;;;8.23;3.50;;;;;;;8.61;60.33;99236.00;5108805;27;39915;-75
2021/04/22 04:02:23;;;;;;;6.57;3.77;;;;;;;8.50;59.82;99239.16;5109294;27;42327;-74
2021/04/22 04:04:50;;;;;;;8.37;4.17;;;;;;;8.47;59.71;99238.44;5109104;27;43158;-73
2021/04/22 04:07:17;;;;;;;9.07;3.73;;;;;;;8.41;59.62;99239.59;5107706;27;42201;-74
2021/04/22 04:09:44;;;;;;;11.70;3.47;;;;;;;8.47;59.66;99249.00;5108379;28;39941;-75
2021/04/22 04:12:11;;;;;;;8.07;3.57;;;;;;;8.49;59.73;99252.44;5108431;27;41358;-73
2021/04/22 04:14:39;;;;;;;9.20;3.73;;;;;;;8.47;59.74;99260.41;5112107;27;42932;-74
2021/04/22 04:17:06;;;;;;;6.57;3.80;;;;;;;8.49;60.05;99257.72;5110647;28;41238;-74
2021/04/22 04:19:34;;;;;;;7.93;3.97;;;;;;;8.50;59.82;99265.56;5111873;28;39790;-74
2021/04/22 04:22:01;;;;;;;8.60;3.30;;;;;;;8.45;59.89;99271.97;5111851;27;41616;-74
2021/04/22 04:24:28;;;;;;;9.60;5.83;;;;;;;8.42;59.88;99274.75;5112720;27;43087;-75
2021/04/22 04:26:55;;;;;;;9.43;5.03;;;;;;;8.39;59.77;99277.56;5111546;27;42040;-74
2021/04/22 04:29:22;;;;;;;10.27;4.17;;;;;;;8.39;60.09;99282.84;5112713;27;39836;-74
2021/04/22 04:31:50;;;;;;;7.83;3.60;;;;;;;8.26;59.99;99270.19;5110812;28;40570;-74
2021/04/22 04:34:17;;;;;;;8.33;4.37;;;;;;;8.35;59.89;99286.53;5112249;27;43252;-74
2021/04/22 04:36:46;;;;;;;9.87;3.43;;;;;;;8.33;60.23;99278.69;5112654;27;42212;-75
2021/04/22 04:39:15;;;;;;;11.53;4.33;;;;;;;8.37;59.91;99295.25;5112488;27;39843;-74
2021/04/22 04:41:44;;;;;;;7.67;3.43;;;;;;;8.33;59.86;99293.66;5094557;28;40997;-75
2021/04/22 04:44:12;;;;;;;10.13;3.67;;;;;;;8.27;59.59;99294.78;5093561;28;42068;-74
2021/04/22 04:46:40;;;;;;;7.20;3.60;;;;;;;8.27;59.66;99302.69;5111420;28;42202;-73
2021/04/22 04:49:09;;;;;;;8.77;3.00;;;;;;;8.33;59.50;99301.56;5110408;28;39062;-74
2021/04/22 04:51:36;;;;;;;8.33;3.33;;;;;;;8.34;58.50;99316.47;5111672;27;42507;-74
2021/04/22 04:54:04;;;;;;;10.03;3.40;;;;;;;8.33;58.66;99330.59;5093213;28;42825;-74
2021/04/22 04:56:32;;;;;;;9.63;3.27;;;;;;;8.24;58.63;99316.03;5093291;28;41451;-74
2021/04/22 04:58:59;;;;;;;5.00;3.00;;;;;;;8.34;58.37;99340.22;5112080;27;39842;-74
2021/04/22 05:01:26;;;;;;;9.33;3.30;;;;;;;8.32;58.24;99342.06;5109555;28;41747;-74
2021/04/22 05:03:53;;;;;;;6.77;2.73;;;;;;;8.33;58.37;99347.28;5110807;28;41699;-74
2021/04/22 05:06:21;;;;;;;9.10;3.07;;;;;;;8.34;57.86;99362.19;5109925;28;42590;-74
2021/04/22 05:08:48;;;;;;;6.70;2.73;;;;;;;8.22;57.19;99368.84;5110990;28;39622;-74
2021/04/22 05:11:15;;;;;;;8.23;2.97;;;;;;;8.12;56.66;99375.47;5111020;27;41503;-73
2021/04/22 05:13:42;;;;;;;7.93;2.57;;;;;;;8.04;57.20;99366.16;5109707;27;42464;-74
2021/04/22 05:16:10;;;;;;;6.37;2.73;;;;;;;8.12;57.19;99380.75;5109619;28;41853;-74
2021/04/22 05:18:37;;;;;;;8.50;2.83;;;;;;;8.07;57.24;99369.53;5109662;28;39707;-73
2021/04/22 05:21:05;;;;;;;10.57;3.70;;;;;;;8.09;56.79;99391.44;5111269;27;41729;-73
2021/04/22 05:23:33;;;;;;;9.73;3.30;;;;;;;8.03;56.72;99375.88;5110666;27;43211;-75
2021/04/22 05:26:00;;;;;;;10.13;2.67;;;;;;;7.84;56.65;99382.88;5109656;28;42231;-75
2021/04/22 05:28:27;;;;;;;11.70;2.53;;;;;;;7.90;55.64;99401.06;5144077;27;40000;-74
2021/04/22 05:30:54;;;;;;;8.03;2.90;;;;;;;7.78;55.71;99422.69;5110806;27;41757;-74
2021/04/22 05:33:21;;;;;;;13.33;3.00;;;;;;;7.71;55.72;99426.50;5111334;27;42561;-75
2021/04/22 05:35:49;;;;;;;10.53;3.10;;;;;;;7.70;55.76;99409.81;5093009;28;42016;-74
2021/04/22 05:38:16;;;;;;;7.57;2.80;;;;;;;7.92;55.63;99420.31;5110009;28;40186;-75
2021/04/22 05:40:44;;;;;;;6.30;2.70;;;;;;;8.06;55.40;99417.94;5111768;27;41635;-75
2021/04/22 05:43:11;;;;;;;7.07;2.40;;;;;;;8.20;55.39;99418.19;5090522;28;43590;-75
2021/04/22 05:45:39;;;;;;;9.47;2.93;;;;;;;8.36;55.30;99426.34;5090827;28;41904;-74
2021/04/22 05:48:07;;;;;;;5.77;2.60;;;;;;;8.42;55.17;99430.47;5088584;28;40029;-75
2021/04/22 05:50:35;;;;;;;7.30;2.53;;;;;;;8.31;54.48;99433.56;5090907;28;41831;-75
2021/04/22 05:53:02;;;;;;;11.53;3.10;;;;;;;8.37;55.42;99435.97;5088672;28;42549;-74
2021/04/22 05:55:30;;;;;;;9.77;3.30;;;;;;;8.37;53.97;99450.94;5090784;28;42271;-74
2021/04/22 05:57:59;;;;;;;9.13;3.20;;;;;;;8.41;54.53;99449.84;5098349;28;39912;-73
2021/04/22 06:00:28;;;;;;;10.10;2.90;;;;;;;8.41;53.78;99457.78;5109481;28;41664;-74
2021/04/22 06:02:55;;;;;;;14.30;4.97;;;;;;;8.40;53.50;99464.00;5109358;28;42435;-74
2021/04/22 06:05:23;;;;;;;12.80;3.07;;;;;;;8.45;53.30;99462.00;5110077;27;42267;-72
2021/04/22 06:07:50;;;;;;;15.57;4.50;;;;;;;8.43;52.89;99464.72;5100414;28;39988;-72
2021/04/22 06:10:21;;;;;;;10.83;3.27;;;;;;;8.54;52.42;99467.72;5109387;27;42394;-74
2021/04/22 06:12:48;;;;;;;9.97;3.23;;;;;;;8.68;52.03;99476.81;5107751;27;43848;-74
2021/04/22 06:15:18;;;;;;;9.87;2.93;;;;;;;8.69;51.72;99473.25;5107953;28;42453;-73
2021/04/22 06:17:45;;;;;;;12.23;3.63;;;;;;;8.68;51.04;99488.25;5091224;28;40172;-74
2021/04/22 06:20:15;;;;;;;11.67;3.70;;;;;;;8.73;51.71;99488.91;5109789;27;41567;-74
2021/04/22 06:22:42;;;;;;;10.27;3.13;;;;;;;8.93;51.92;99490.63;5108243;27;42747;-74
2021/04/22 06:25:11;;;;;;;11.97;3.20;;;;;;;9.15;51.73;99490.53;5109149;27;42296;-74
2021/04/22 06:27:38;;;;;;;9.70;3.10;;;;;;;9.37;50.50;99493.88;5109662;27;39760;-74
2021/04/22 06:30:06;;;;;;;10.73;3.23;;;;;;;9.56;49.28;99502.63;5109889;27;41445;-74
2021/04/22 06:32:35;;;;;;;8.87;3.00;;;;;;;9.72;48.95;99506.25;5109670;27;42417;-74
2021/04/22 06:35:02;;;;;;;11.27;3.17;;;;;;;9.83;49.35;99500.44;5107865;28;41666;-75
2021/04/22 06:37:29;;;;;;;16.30;7.87;;;;;;;10.03;48.47;99517.94;5107134;28;40011;-74
2021/04/22 06:39:56;;;;;;;12.40;4.20;;;;;;;10.00;47.61;99528.72;5107142;28;41581;-73
2021/04/22 06:42:23;;;;;;;12.77;3.40;;;;;;;10.01;47.15;99531.25;5107238;28;42644;-73
2021/04/22 06:44:50;;;;;;;17.37;3.77;;;;;;;10.00;47.75;99524.28;5110226;27;42167;-73
2021/04/22 06:47:18;;;;;;;12.77;3.20;;;;;;;9.83;47.35;99528.66;5103438;27;39752;-73
2021/04/22 06:49:46;;;;;;;12.10;3.47;;;;;;;9.75;47.31;99514.97;5092230;28;40683;-73
2021/04/22 06:52:15;;;;;;;11.77;3.43;;;;;;;9.90;46.83;99530.06;5101826;27;43364;-74
2021/04/22 06:54:42;;;;;;;8.87;3.10;;;;;;;10.15;48.05;99522.63;5103587;27;42178;-74
2021/04/22 06:57:09;;;;;;;12.10;3.83;;;;;;;10.49;45.40;99553.59;5108072;27;40188;-73
2021/04/22 06:59:36;;;;;;;13.67;3.73;;;;;;;10.68;44.97;99562.31;5108865;27;41552;-74
2021/04/22 07:02:03;;;;;;;11.10;3.77;;;;;;;10.79;45.89;99551.16;5108344;27;43452;-74
2021/04/22 07:04:30;;;;;;;10.17;3.60;;;;;;;10.85;46.30;99536.75;5109032;27;42565;-73
2021/04/22 07:06:58;;;;;;;10.07;3.90;;;;;;;10.96;45.37;99561.75;5107473;27;40081;-74
2021/04/22 07:09:25;;;;;;;13.37;3.33;;;;;;;11.18;45.27;99565.88;5108687;27;42437;-73
2021/04/22 07:11:53;;;;;;;9.20;3.30;;;;;;;11.47;45.67;99570.47;5106442;28;43477;-72
2021/04/22 07:14:23;;;;;;;11.87;3.70;;;;;;;11.67;43.35;99572.03;5107168;28;42235;-73
2021/04/22 07:16:52;;;;;;;9.77;3.70;;;;;;;12.52;41.64;99596.34;5108161;27;39860;-74
2021/04/22 07:19:19;;;;;;;11.80;3.80;;;;;;;13.48;41.64;99585.22;5107429;28;41852;-74
2021/04/22 07:21:46;;;;;;;10.07;3.40;;;;;;;14.28;39.79;99609.31;5089540;28;42018;-74
2021/04/22 07:24:14;;;;;;;9.10;4.00;;;;;;;14.55;38.37;99605.81;5108468;27;42126;-74
2021/04/22 07:26:41;;;;;;;10.50;3.33;;;;;;;14.70;39.09;99610.97;5106336;28;39191;-75
2021/04/22 07:29:09;;;;;;;10.53;3.53;;;;;;;14.70;38.45;99610.97;5090284;28;40333;-74
2021/04/22 07:31:36;;;;;;;10.63;3.53;;;;;;;14.62;37.41;99618.59;5108404;27;43475;-75
2021/04/22 07:34:03;;;;;;;9.03;3.73;;;;;;;15.13;38.22;99617.84;5108335;27;42769;-75
2021/04/22 07:36:30;;;;;;;40.07;27.20;;;;;;;15.88;35.28;99632.13;5106639;28;39847;-76
2021/04/22 07:38:57;;;;;;;13.50;4.13;;;;;;;16.76;34.12;99639.81;5107246;27;42237;-74
2021/04/22 07:41:25;;;;;;;11.07;3.90;;;;;;;17.53;34.07;99630.28;5089877;28;42678;-74
2021/04/22 07:43:53;;;;;;;9.73;3.67;;;;;;;18.53;33.02;99640.03;5090023;28;41316;-75
2021/04/22 07:46:20;;;;;;;10.00;3.10;;;;;;;18.43;29.78;99649.81;5093383;28;40084;-73
2021/04/22 07:48:48;;;;;;;9.73;3.60;;;;;;;18.36;30.74;99637.03;5108121;27;41742;-74
2021/04/22 07:51:15;;;;;;;13.10;4.17;;;;;;;18.61;30.53;99650.16;5105630;28;42828;-74
2021/04/22 07:53:42;;;;;;;11.70;3.80;;;;;;;19.15;31.14;99646.50;5107283;28;41403;-74
2021/04/22 07:56:09;;;;;;;11.77;3.63;;;;;;;20.15;29.73;99648.44;5107449;27;39974;-74
2021/04/22 07:58:38;;;;;;;8.70;3.17;;;;;;;21.22;28.31;99660.22;5108024;27;42624;-74
2021/04/22 08:01:05;;;;;;;8.37;3.57;;;;;;;22.10;27.00;99657.13;5106195;28;41996;-74
2021/04/22 08:03:32;;;;;;;7.90;3.20;;;;;;;23.22;24.75;99683.66;5106238;28;42208;-74
2021/04/22 08:05:59;;;;;;;7.73;3.43;;;;;;;24.16;25.10;99666.69;5106100;28;40419;-74
2021/04/22 08:08:27;;;;;;;8.03;3.63;;;;;;;24.70;23.74;99679.75;5106782;28;40685;-74
2021/04/22 08:10:56;;;;;;;9.67;4.07;;;;;;;24.66;22.64;99686.50;5105853;28;42198;-74
2021/04/22 08:13:23;;;;;;;11.07;4.17;;;;;;;24.54;22.77;99682.41;5104705;28;42936;-73
2021/04/22 08:15:53;;;;;;;9.53;3.77;;;;;;;23.73;23.07;99682.03;5105909;28;40303;-74
2021/04/22 08:18:24;;;;;;;7.43;3.53;;;;;;;23.33;24.97;99657.38;5094804;28;42205;-74
2021/04/22 08:20:54;;;;;;;8.53;3.37;;;;;;;23.44;24.97;99647.16;5089111;28;42079;-74
2021/04/22 08:23:22;;;;;;;10.20;3.73;;;;;;;24.08;25.02;99650.41;5106371;28;41618;-75
2021/04/22 08:25:53;;;;;;;8.57;3.60;;;;;;;24.71;21.89;99677.91;5107856;27;40732;-75
2021/04/22 08:28:23;;;;;;;13.20;5.33;;;;;;;25.43;21.20;99679.00;5107911;27;41312;-76
2021/04/22 08:30:54;;;;;;;9.03;4.07;;;;;;;25.76;20.78;99664.38;5088931;28;42020;-75
2021/04/22 08:33:24;;;;;;;8.00;3.87;;;;;;;26.10;20.04;99693.97;5105712;28;41866;-75
2021/04/22 08:35:52;;;;;;;11.40;4.03;;;;;;;25.83;20.42;99686.25;5088641;28;38741;-75
2021/04/22 08:38:21;;;;;;;7.93;3.70;;;;;;;26.03;21.33;99676.69;5106306;28;41258;-76
2021/04/22 08:40:50;;;;;;;9.40;4.23;;;;;;;27.09;19.81;99695.19;5112659;28;43756;-77
2021/04/22 08:43:17;;;;;;;6.73;2.97;;;;;;;28.40;19.89;99684.75;5096114;28;41914;-76
2021/04/22 08:45:45;;;;;;;7.17;2.90;;;;;;;28.88;19.72;99677.81;5114489;28;40846;-77
2021/04/22 08:48:14;;;;;;;6.30;2.63;;;;;;;28.80;18.69;99695.13;5110248;28;41966;-75
2021/04/22 08:50:43;;;;;;;4.80;2.70;;;;;;;28.59;18.24;99695.88;5112056;27;43511;-74
2021/04/22 08:53:14;;;;;;;7.60;3.47;;;;;;;28.84;18.10;99696.41;5102468;28;42581;-75
2021/04/22 08:55:41;;;;;;;7.77;2.57;;;;;;;29.79;17.79;99701.53;5108705;27;39686;-75
2021/04/22 08:58:09;;;;;;;10.47;3.07;;;;;;;30.08;16.19;99711.41;5087111;27;41840;-75
2021/04/22 09:00:40;;;;;;;6.03;2.97;;;;;;;29.68;17.17;99702.06;5108523;28;41404;-76
2021/04/22 09:03:08;;;;;;;5.07;2.73;;;;;;;28.93;18.09;99681.63;5111727;28;44164;-76
2021/04/22 09:05:36;;;;;;;6.83;2.70;;;;;;;28.63;17.74;99693.63;5109203;27;40026;-76
2021/04/22 09:08:03;;;;;;;5.70;3.53;;;;;;;28.26;19.33;99677.44;5109488;27;41648;-75
2021/04/22 09:10:31;;;;;;;8.83;5.00;;;;;;;28.06;18.09;99710.69;5109067;28;42777;-75
2021/04/22 09:13:03;;;;;;;6.07;2.80;;;;;;;27.47;18.29;99705.09;5108136;28;41954;-76
2021/04/22 09:15:33;;;;;;;6.87;2.37;;;;;;;27.90;18.30;99694.50;5109029;28;39577;-76
2021/04/22 09:18:03;;;;;;;6.50;2.60;;;;;;;27.88;17.52;99696.56;5107269;28;41761;-76
2021/04/22 09:20:34;;;;;;;6.97;2.73;;;;;;;27.59;17.97;99682.91;5109863;27;41749;-75
2021/04/22 09:23:13;;;;;;;8.10;2.80;;;;;;;27.61;19.03;99680.84;5091189;28;42698;-74
2021/04/22 09:25:40;;;;;;;7.33;3.27;;;;;;;27.65;19.03;99684.91;5110562;27;39787;-76
2021/04/22 09:28:08;;;;;;;8.13;3.07;;;;;;;28.16;17.99;99694.88;5109312;27;42713;-74
2021/04/22 09:30:39;;;;;;;5.80;2.73;;;;;;;28.95;17.38;99692.34;5110429;27;42759;-74
2021/04/22 09:33:08;;;;;;;7.50;2.60;;;;;;;29.65;17.02;99700.59;5091401;28;41060;-75
2021/04/22 09:35:35;;;;;;;7.73;3.20;;;;;;;30.33;16.39;99692.63;5108111;28;39445;-76
2021/04/22 09:38:03;;;;;;;7.63;3.10;;;;;;;31.07;16.02;99699.03;5107402;28;41068;-75
2021/04/22 09:40:34;;;;;;;7.03;3.13;;;;;;;31.12;15.70;99694.88;5106486;28;42801;-76
2021/04/22 09:43:03;;;;;;;6.53;2.93;;;;;;;30.96;15.09;99710.59;5088405;28;41777;-76
2021/04/22 09:45:32;;;;;;;9.00;3.60;;;;;;;30.70;15.03;99708.59;5109418;27;39814;-74
2021/04/22 09:47:59;;;;;;;6.23;2.87;;;;;;;30.45;15.84;99703.84;5107966;27;42397;-75
2021/04/22 09:50:29;;;;;;;7.67;3.17;;;;;;;30.62;15.24;99700.59;5109106;27;42941;-75
2021/04/22 09:52:58;;;;;;;8.70;3.43;;;;;;;30.97;15.23;99687.66;5107649;27;42441;-76
2021/04/22 09:55:31;;;;;;;8.87;3.20;;;;;;;31.70;14.38;99694.06;5108403;28;40211;-75
2021/04/22 09:58:05;;;;;;;7.50;2.87;;;;;;;32.57;13.61;99700.22;5109626;27;41578;-76
2021/04/22 10:00:33;;;;;;;7.73;3.47;;;;;;;32.65;13.12;99719.16;5110562;27;42855;-75
2021/04/22 10:03:04;;;;;;;9.23;3.37;;;;;;;32.17;13.51;99711.28;5108214;28;42116;-75
2021/04/22 10:05:35;;;;;;;6.40;2.87;;;;;;;31.16;14.54;99691.47;5110556;27;39942;-75
2021/04/22 10:08:08;;;;;;;6.30;3.30;;;;;;;30.42;14.96;99687.84;5107680;28;41387;-75
2021/04/22 10:10:37;;;;;;;7.40;3.57;;;;;;;30.42;15.36;99682.38;5108712;27;43274;-74
2021/04/22 10:13:07;;;;;;;6.80;3.27;;;;;;;31.13;14.15;99693.81;5109726;27;42120;-75
2021/04/22 10:15:35;;;;;;;7.37;3.53;;;;;;;31.54;13.44;99699.94;5110592;27;40024;-74
2021/04/22 10:18:05;;;;;;;8.07;3.43;;;;;;;31.71;13.69;99700.41;5108677;27;41728;-73
2021/04/22 10:20:34;;;;;;;6.07;3.23;;;;;;;32.22;13.44;99686.84;5110202;27;43451;-74
2021/04/22 10:23:05;;;;;;;4.70;2.80;;;;;;;32.94;12.32;99710.41;5108565;28;41044;-74
2021/04/22 10:25:34;;;;;;;4.63;2.73;;;;;;;33.05;11.65;99712.44;5110168;27;39658;-76
2021/04/22 10:28:04;;;;;;;8.13;3.30;;;;;;;33.41;11.07;99721.94;5090630;28;40547;-74
2021/04/22 10:30:32;;;;;;;7.20;2.77;;;;;;;34.12;11.84;99703.16;5109534;28;41835;-74
2021/04/22 10:33:00;;;;;;;6.28;3.58;;;;;;;35.61;11.13;99720.88;5109167;27;42680;-75
2021/04/22 10:35:30;;;;;;;6.72;3.42;;;;;;;35.94;10.71;99677.09;5110315;27;40411;-76
2021/04/22 10:37:58;;;;;;;5.72;3.42;;;;;;;36.69;10.19;99701.94;5108398;27;42286;-75
2021/04/22 10:40:26;;;;;;;8.32;3.40;;;;;;;36.88;9.86;99698.97;5110607;27;42627;-76
2021/04/22 10:42:55;;;;;;;5.50;3.27;;;;;;;36.60;10.05;99697.00;5109541;27;42948;-76
2021/04/22 10:45:23;;;;;;;5.27;3.10;;;;;;;36.05;10.21;99704.88;5109090;28;40166;-77
2021/04/22 10:47:51;;;;;;;7.27;3.70;;;;;;;35.76;10.95;99702.00;5107706;28;40898;-75
2021/04/22 10:50:21;;;;;;;5.30;3.10;;;;;;;35.61;10.28;99704.34;5108439;28;42407;-75
2021/04/22 10:52:50;;;;;;;6.30;3.23;;;;;;;35.37;10.06;99702.63;5107881;28;42248;-76
2021/04/22 10:55:20;;;;;;;5.37;3.27;;;;;;;35.01;10.77;99692.56;5109001;27;39622;-76
2021/04/22 10:57:49;;;;;;;5.50;2.80;;;;;;;34.95;10.86;99694.34;5105647;28;40759;-75
2021/04/22 11:00:19;;;;;;;6.53;3.33;;;;;;;35.17;10.57;99692.75;5105062;28;42513;-76
2021/04/22 11:02:50;;;;;;;6.93;2.87;;;;;;;35.59;10.93;99690.00;5107035;27;43026;-77
2021/04/22 11:05:23;;;;;;;5.03;3.20;;;;;;;35.59;11.09;99681.72;5108044;27;40034;-76
2021/04/22 11:07:56;;;;;;;5.87;2.90;;;;;;;35.60;11.68;99672.38;5107953;27;42171;-77
2021/04/22 11:10:23;;;;;;;6.70;3.40;;;;;;;35.54;11.05;99670.56;5107828;28;42594;-74
2021/04/22 11:12:50;;;;;;;7.00;3.50;;;;;;;35.35;10.91;99666.25;5108615;27;42649;-76
2021/04/22 11:15:19;;;;;;;8.70;3.20;;;;;;;35.16;11.08;99658.03;5089918;28;40120;-76
2021/04/22 11:17:48;;;;;;;5.43;3.63;;;;;;;35.36;11.41;99665.97;5107172;28;41456;-75
2021/04/22 11:20:19;;;;;;;6.87;3.70;;;;;;;35.69;10.49;99668.19;5107520;28;41758;-76
2021/04/22 11:22:47;;;;;;;7.43;3.20;;;;;;;35.36;10.79;99667.94;5105654;27;42406;-76
2021/04/22 11:25:19;;;;;;;5.50;3.23;;;;;;;34.32;11.81;99656.22;5106855;28;40264;-76
2021/04/22 11:27:49;;;;;;;6.53;3.20;;;;;;;32.88;12.30;99656.41;5088483;28;41625;-77
2021/04/22 11:30:26;;;;;;;7.67;3.60;;;;;;;32.11;13.83;99630.78;5090841;28;43077;-76
2021/04/22 11:32:56;;;;;;;8.17;3.20;;;;;;;32.86;12.82;99635.72;5105869;28;42822;-77
2021/04/22 11:35:25;;;;;;;6.60;3.33;;;;;;;33.76;12.08;99645.38;5108359;27;39442;-76